createdAt,value
2023-03-07T00:00:56.241Z,100905.22
2023-03-07T00:06:05.540Z,100897.88
2023-03-07T00:11:11.466Z,100897.56
2023-03-07T00:16:16.957Z,100899.72
2023-03-07T00:21:23.961Z,100902.69
2023-03-07T00:26:29.788Z,100909.22
2023-03-07T00:31:34.570Z,100944.53
2023-03-07T00:36:39.426Z,100916.09
2023-03-07T00:41:44.043Z,100900.50
2023-03-07T00:46:48.633Z,100917.78
2023-03-07T00:51:53.519Z,100908.28
2023-03-07T00:56:58.360Z,100905.78
2023-03-07T01:02:03.390Z,100897.03
2023-03-07T01:07:07.644Z,100888.28
2023-03-07T01:12:13.356Z,100887.56
2023-03-07T01:17:18.058Z,100882.25
2023-03-07T01:22:22.854Z,100934.97
2023-03-07T01:27:28.108Z,100905.91
2023-03-07T01:32:33.779Z,100900.53
2023-03-07T01:37:38.673Z,100902.91
2023-03-07T01:42:45.110Z,100882.75
2023-03-07T01:47:50.653Z,100878.28
2023-03-07T01:53:02.332Z,100858.22
2023-03-07T01:58:12.270Z,100849.31
2023-03-07T02:03:24.391Z,100840.63
2023-03-07T02:08:32.276Z,100830.75
2023-03-07T02:13:37.042Z,100829.00
2023-03-07T02:18:49.777Z,100823.19
2023-03-07T02:24:23.950Z,100818.56
2023-03-07T02:29:29.655Z,100805.50
2023-03-07T02:34:35.482Z,100802.66
2023-03-07T02:39:49.811Z,100796.00
2023-03-07T02:45:02.184Z,100783.59
2023-03-07T02:50:13.826Z,100779.53
2023-03-07T02:55:23.096Z,100770.50
2023-03-07T03:00:40.488Z,100787.97
2023-03-07T03:05:45.732Z,100755.19
2023-03-07T03:10:55.830Z,100733.03
2023-03-07T03:16:03.264Z,100708.97
2023-03-07T03:21:13.726Z,100709.84
2023-03-07T03:26:18.952Z,100689.75
2023-03-07T03:31:23.865Z,100684.88
2023-03-07T03:36:29.908Z,100687.13
2023-03-07T03:41:40.364Z,100694.66
2023-03-07T03:46:46.007Z,100669.84
2023-03-07T03:51:51.608Z,100668.94
2023-03-07T03:56:56.990Z,100668.38
2023-03-07T04:02:02.457Z,100653.97
2023-03-07T04:07:07.654Z,100635.03
2023-03-07T04:12:12.762Z,100630.59
2023-03-07T04:17:18.060Z,100613.25
2023-03-07T04:22:23.319Z,100616.84
2023-03-07T04:27:28.741Z,100592.88
2023-03-07T04:32:35.571Z,100590.56
2023-03-07T04:37:40.791Z,100570.19
2023-03-07T04:42:46.025Z,100559.50
2023-03-07T04:47:51.266Z,100576.19
2023-03-07T04:52:56.773Z,100539.00
2023-03-07T04:58:02.418Z,100522.72
2023-03-07T05:03:08.321Z,100500.06
2023-03-07T05:08:13.641Z,100486.84
2023-03-07T05:13:18.934Z,100477.06
2023-03-07T05:18:24.356Z,100462.38
2023-03-07T05:23:31.184Z,100456.25
2023-03-07T05:28:36.331Z,100445.88
2023-03-07T05:33:43.873Z,100416.78
2023-03-07T05:38:49.490Z,100411.66
2023-03-07T05:43:56.118Z,100407.16
2023-03-07T05:49:01.278Z,100379.28
2023-03-07T05:54:07.368Z,100418.75
2023-03-07T05:59:16.649Z,100372.34
2023-03-07T06:04:25.010Z,100376.03
2023-03-07T06:09:29.579Z,100373.38
2023-03-07T06:14:36.491Z,100366.00
2023-03-07T06:19:41.626Z,100359.84
2023-03-07T06:24:46.725Z,100376.06
2023-03-07T06:29:52.277Z,100349.75
2023-03-07T06:34:57.473Z,100332.50
2023-03-07T06:40:08.864Z,100336.00
2023-03-07T06:45:15.702Z,100317.91
2023-03-07T06:50:26.630Z,100323.66
2023-03-07T06:55:40.404Z,100318.72
2023-03-07T07:00:48.434Z,100312.34
2023-03-07T07:05:54.548Z,100310.28
2023-03-07T07:11:01.029Z,100327.34
2023-03-07T07:16:10.049Z,100306.59
2023-03-07T07:21:16.906Z,100314.00
2023-03-07T07:26:22.104Z,100297.97
2023-03-07T07:31:28.737Z,100311.94
2023-03-07T07:36:35.514Z,100281.09
2023-03-07T07:41:40.819Z,100325.09
2023-03-07T07:46:45.986Z,100291.59
2023-03-07T07:51:50.670Z,100297.56
2023-03-07T07:56:56.040Z,100304.34
2023-03-07T08:02:02.035Z,100278.88
2023-03-07T08:07:08.389Z,100305.00
2023-03-07T08:12:14.087Z,100271.69
2023-03-07T08:17:19.375Z,100294.06
2023-03-07T08:22:24.363Z,100266.75
2023-03-07T08:27:30.075Z,100271.50
2023-03-07T08:32:35.213Z,100262.66
2023-03-07T08:37:40.982Z,100275.00
2023-03-07T08:42:46.106Z,100271.09
2023-03-07T08:47:53.812Z,100267.41
2023-03-07T08:52:58.865Z,100258.97
2023-03-07T08:58:03.919Z,100268.41
2023-03-07T09:03:10.125Z,100256.09
2023-03-07T09:08:15.222Z,100271.19
2023-03-07T09:13:20.324Z,100258.66
2023-03-07T09:18:25.452Z,100244.25
2023-03-07T09:23:30.676Z,100256.72
2023-03-07T09:28:35.941Z,100253.59
2023-03-07T09:33:41.689Z,100251.66
2023-03-07T09:38:47.012Z,100274.50
2023-03-07T09:44:10.156Z,100257.13
2023-03-07T09:49:53.978Z,100262.34
2023-03-07T09:55:03.097Z,100275.63
2023-03-07T10:00:19.013Z,100265.47
2023-03-07T10:05:30.181Z,100262.03
2023-03-07T10:10:51.257Z,100256.41
2023-03-07T10:16:10.674Z,100266.06
2023-03-07T10:22:03.485Z,100245.25
2023-03-07T10:27:17.006Z,100281.03
2023-03-07T10:32:39.097Z,100266.09
2023-03-07T10:37:55.234Z,100285.44
2023-03-07T10:43:01.665Z,100287.81
2023-03-07T10:48:18.312Z,100269.97
2023-03-07T10:53:33.677Z,100319.25
2023-03-07T10:58:38.730Z,100271.88
2023-03-07T11:03:58.526Z,100304.47
2023-03-07T11:09:20.681Z,100320.94
2023-03-07T11:14:30.116Z,100309.69
2023-03-07T11:19:39.331Z,100324.16
2023-03-07T11:24:53.090Z,100308.75
2023-03-07T11:30:39.424Z,100323.41
2023-03-07T11:36:04.245Z,100313.31
2023-03-07T11:41:29.924Z,100315.88
2023-03-07T11:46:37.235Z,100319.44
2023-03-07T11:52:02.872Z,100336.25
2023-03-07T11:57:37.958Z,100323.50
2023-03-07T12:03:06.845Z,100335.19
2023-03-07T12:08:40.171Z,100356.69
2023-03-07T12:13:44.733Z,100345.31
2023-03-07T12:19:38.178Z,100380.38
2023-03-07T12:25:11.958Z,100428.88
2023-03-07T12:30:55.301Z,100403.22
2023-03-07T12:36:11.318Z,100455.69
2023-03-07T12:41:28.653Z,100430.97
2023-03-07T12:47:22.502Z,100420.41
2023-03-07T12:52:56.572Z,100423.88
2023-03-07T12:58:23.252Z,100408.19
2023-03-07T13:03:50.083Z,100433.66
2023-03-07T13:08:59.788Z,100441.44
2023-03-07T13:14:07.973Z,100446.75
2023-03-07T13:19:36.906Z,100476.16
2023-03-07T13:24:43.081Z,100512.38
2023-03-07T13:30:12.248Z,100492.66
2023-03-07T13:35:35.401Z,100517.84
2023-03-07T13:40:43.541Z,100504.38
2023-03-07T13:46:05.919Z,100493.50
2023-03-07T13:51:12.121Z,100499.00
2023-03-07T13:56:16.881Z,100512.38
2023-03-07T14:01:29.182Z,100511.56
2023-03-07T14:06:37.897Z,100520.50
2023-03-07T14:11:58.060Z,100517.16
2023-03-07T14:17:24.337Z,100521.78
2023-03-07T14:22:40.445Z,100537.34
2023-03-07T14:28:03.762Z,100539.81
2023-03-07T14:33:08.412Z,100558.06
2023-03-07T14:38:30.933Z,100563.50
2023-03-07T14:43:38.592Z,100579.19
2023-03-07T14:49:11.586Z,100596.75
2023-03-07T14:54:23.331Z,100610.34
2023-03-07T14:59:29.677Z,100609.19
2023-03-07T15:04:36.973Z,100608.34
2023-03-07T15:09:41.766Z,100681.72
2023-03-07T15:14:55.609Z,100602.91
2023-03-07T15:20:09.371Z,100598.00
2023-03-07T15:25:26.207Z,100593.22
2023-03-07T15:30:34.927Z,100610.06
2023-03-07T15:35:40.015Z,100584.00
2023-03-07T15:40:45.428Z,100597.75
2023-03-07T15:46:08.335Z,100545.00
2023-03-07T15:51:24.796Z,100524.38
2023-03-07T15:56:38.957Z,100507.91
2023-03-07T16:01:43.798Z,100559.47
2023-03-07T16:06:48.572Z,100537.06
2023-03-07T16:11:53.405Z,100521.59
2023-03-07T16:17:04.068Z,100515.50
2023-03-07T16:22:16.328Z,100527.41
2023-03-07T16:27:24.525Z,100581.66
2023-03-07T16:32:29.240Z,100556.03
2023-03-07T16:37:34.110Z,100586.91
2023-03-07T16:42:39.520Z,100562.03
2023-03-07T16:47:44.916Z,100575.00
2023-03-07T16:52:49.464Z,100556.31
2023-03-07T16:57:57.948Z,100553.53
2023-03-07T17:03:04.532Z,100562.97
2023-03-07T17:08:09.943Z,100545.28
2023-03-07T17:13:18.718Z,100549.63
2023-03-07T17:18:23.664Z,100546.97
2023-03-07T17:23:28.279Z,100582.75
2023-03-07T17:28:32.880Z,100567.53
2023-03-07T17:33:37.569Z,100579.34
2023-03-07T17:38:42.118Z,100589.81
2023-03-07T17:43:46.657Z,100585.13
2023-03-07T17:48:51.263Z,100597.25
2023-03-07T17:53:55.338Z,100605.13
2023-03-07T17:59:03.356Z,100640.56
2023-03-07T18:04:07.853Z,100604.16
2023-03-07T18:09:12.891Z,100615.84
2023-03-07T18:14:17.612Z,100632.13
2023-03-07T18:19:27.233Z,100631.44
2023-03-07T18:24:32.108Z,100632.84
2023-03-07T18:29:40.442Z,100635.09
2023-03-07T18:34:45.407Z,100642.38
2023-03-07T18:39:50.154Z,100682.94
2023-03-07T18:44:54.920Z,100642.47
2023-03-07T18:49:59.581Z,100653.75
2023-03-07T18:55:04.140Z,100646.56
2023-03-07T19:00:12.507Z,100675.28
2023-03-07T19:05:17.292Z,100653.81
2023-03-07T19:10:21.997Z,100648.94
2023-03-07T19:15:26.610Z,100648.81
2023-03-07T19:20:31.263Z,100658.53
2023-03-07T19:25:38.956Z,100712.03
2023-03-07T19:30:43.650Z,100686.94
2023-03-07T19:35:47.783Z,100676.41
2023-03-07T19:40:52.383Z,100692.22
2023-03-07T19:45:57.671Z,100697.59
2023-03-07T19:51:02.438Z,100705.78
2023-03-07T19:56:21.855Z,100698.09
2023-03-07T20:01:27.179Z,100710.50
2023-03-07T20:06:33.568Z,100710.78
2023-03-07T20:11:41.358Z,100722.97
2023-03-07T20:16:46.020Z,100711.47
2023-03-07T20:21:51.564Z,100714.28
2023-03-07T20:26:56.335Z,100730.63
2023-03-07T20:32:00.640Z,100739.03
2023-03-07T20:37:05.326Z,100757.97
2023-03-07T20:42:09.978Z,100762.50
2023-03-07T20:47:14.652Z,100800.13
2023-03-07T20:52:19.439Z,100811.88
2023-03-07T20:57:24.308Z,100782.72
2023-03-07T21:02:28.958Z,100785.75
2023-03-07T21:07:33.617Z,100798.41
2023-03-07T21:12:38.277Z,100800.66
2023-03-07T21:17:43.209Z,100823.94
2023-03-07T21:22:48.080Z,100837.72
2023-03-07T21:27:52.726Z,100857.63
2023-03-07T21:32:58.876Z,100872.94
2023-03-07T21:38:03.526Z,100882.59
2023-03-07T21:43:08.213Z,100898.63
2023-03-07T21:48:13.141Z,100887.28
2023-03-07T21:53:18.043Z,100897.78
2023-03-07T21:58:23.727Z,100902.13
2023-03-07T22:03:30.509Z,100901.97
2023-03-07T22:08:35.241Z,100917.06
2023-03-07T22:13:41.490Z,100913.66
2023-03-07T22:18:46.005Z,100922.94
2023-03-07T22:23:50.728Z,100931.88
2023-03-07T22:28:55.811Z,100947.78
2023-03-07T22:34:01.361Z,100950.16
2023-03-07T22:39:08.436Z,100965.66
2023-03-07T22:44:13.292Z,100969.97
2023-03-07T22:49:17.952Z,100981.78
2023-03-07T22:54:22.631Z,101010.44
2023-03-07T22:59:27.397Z,100974.50
2023-03-07T23:04:32.341Z,100991.34
2023-03-07T23:09:36.955Z,101028.09
2023-03-07T23:14:41.587Z,101041.09
2023-03-07T23:19:46.270Z,101048.00
2023-03-07T23:24:51.006Z,101050.88
2023-03-07T23:29:55.664Z,101080.63
2023-03-07T23:35:00.413Z,101087.69
2023-03-07T23:40:06.249Z,101089.38
2023-03-07T23:45:11.480Z,101105.72
2023-03-07T23:50:17.151Z,101095.72
2023-03-07T23:55:22.019Z,101110.84
